Time;durP1;ratioP1;P1;durP2;ratioP2;P2;SDS_P1;SDS_P2;PMS_P1;PMS_P2;Temp;Humidity;BMP_temperature;BMP_pressure;BME280_temperature;BME280_humidity;BME280_pressure;Samples;Min_cycle;Max_cycle;Signal;HPM_P1;HPM_P2
2023/07/16 00:02:23;;;;;;;12.05;3.53;;;;;;;-144.47;92.66;52538.31;5061911;28;20440;-66
2023/07/16 00:04:48;;;;;;;6.45;3.03;;;;;;;-144.47;90.08;52572.09;5053614;28;20020;-70
2023/07/16 00:07:14;;;;;;;7.60;3.08;;;;;;;-144.47;89.68;52570.09;5052180;28;20036;-62
2023/07/16 00:09:39;;;;;;;6.13;2.55;;;;;;;-144.47;90.09;52556.19;5046214;28;20047;-65
2023/07/16 00:12:05;;;;;;;5.13;2.75;;;;;;;-144.47;91.27;52548.25;5052242;28;20055;-67
2023/07/16 00:14:30;;;;;;;7.82;2.55;;;;;;;-144.47;98.13;52570.09;5050357;28;20029;-67
2023/07/16 00:16:56;;;;;;;6.88;2.78;;;;;;;-144.47;100.00;52562.16;5051996;28;20029;-66
2023/07/16 00:19:21;;;;;;;4.80;1.77;;;;;;;-144.47;100.00;52558.19;5049985;28;20509;-66
2023/07/16 00:21:46;;;;;;;6.68;2.30;;;;;;;-144.47;100.00;52550.25;5051542;28;20368;-68
2023/07/16 00:24:12;;;;;;;6.20;2.35;;;;;;;-144.47;100.00;52538.31;5050786;28;20082;-65
2023/07/16 00:26:37;;;;;;;6.32;2.28;;;;;;;-144.47;100.00;52532.38;5051972;28;20079;-67
2023/07/16 00:29:03;;;;;;;4.57;1.88;;;;;;;-144.47;100.00;52564.13;5051086;28;20025;-59
2023/07/16 00:31:28;;;;;;;4.30;2.50;;;;;;;-144.47;100.00;52546.25;5046890;28;20033;-65
2023/07/16 00:33:53;;;;;;;8.00;3.15;;;;;;;-144.47;100.00;52570.09;5050503;28;20475;-64
2023/07/16 00:36:19;;;;;;;6.50;2.30;;;;;;;-144.47;100.00;52566.13;5051431;28;20033;-64
2023/07/16 00:38:45;;;;;;;6.97;2.50;;;;;;;-144.47;100.00;52558.19;5051065;28;20074;-64
2023/07/16 00:41:12;;;;;;;5.93;2.80;;;;;;;-144.47;100.00;52554.22;5051758;28;20048;-65
2023/07/16 00:43:37;;;;;;;6.85;2.72;;;;;;;-144.47;100.00;52546.25;5049838;28;20564;-66
2023/07/16 00:46:03;;;;;;;5.05;2.83;;;;;;;-144.47;100.00;52550.25;5051173;28;20024;-63
2023/07/16 00:48:29;;;;;;;8.35;3.20;;;;;;;-144.47;100.00;52574.06;5050866;28;20470;-67
2023/07/16 00:50:54;;;;;;;5.88;2.30;;;;;;;-144.47;100.00;52542.28;5050809;28;20028;-65
2023/07/16 00:53:21;;;;;;;11.32;3.00;;;;;;;-144.47;100.00;52548.25;5050760;28;20024;-61
2023/07/16 00:55:46;;;;;;;10.13;3.05;;;;;;;-144.47;100.00;52574.06;5050846;28;20494;-65
2023/07/16 00:58:12;;;;;;;6.90;3.40;;;;;;;-144.47;100.00;52574.06;5050509;28;20036;-66
2023/07/16 01:00:39;;;;;;;8.40;3.10;;;;;;;-144.47;100.00;52550.25;5046100;28;20508;-65
2023/07/16 01:03:11;;;;;;;7.95;3.17;;;;;;;-144.47;100.00;52554.22;5051146;28;20508;-66
2023/07/16 01:06:15;;;;;;;4.93;2.58;;;;;;;-144.47;100.00;52558.19;5049986;28;20505;-61
2023/07/16 01:09:07;;;;;;;6.93;2.78;;;;;;;-144.47;100.00;52542.28;5049542;28;20083;-65
2023/07/16 01:11:35;;;;;;;15.35;3.65;;;;;;;-144.47;100.00;52556.19;5050692;28;20486;-63
2023/07/16 01:14:01;;;;;;;7.30;3.28;;;;;;;-144.47;100.00;52566.13;5049935;28;20032;-64
2023/07/16 01:16:27;;;;;;;6.53;3.00;;;;;;;-144.47;100.00;52582.00;5050771;28;20056;-66
2023/07/16 01:18:52;;;;;;;9.05;3.30;;;;;;;-144.47;100.00;52552.22;5050678;28;20031;-63
2023/07/16 01:21:23;;;;;;;7.93;3.72;;;;;;;-144.47;100.00;52568.13;5050852;28;20670;-68
2023/07/16 01:23:51;;;;;;;13.10;3.20;;;;;;;-144.47;100.00;52558.19;5050197;28;20587;-67
2023/07/16 01:26:39;;;;;;;6.20;3.45;;;;;;;-144.47;100.00;52528.41;5050444;28;20056;-65
2023/07/16 01:29:19;;;;;;;15.05;3.30;;;;;;;-144.47;100.00;52558.19;5050056;28;20028;-65
2023/07/16 01:31:46;;;;;;;8.85;3.15;;;;;;;-144.47;100.00;52558.19;5045485;28;20033;-64
2023/07/16 01:34:13;;;;;;;5.57;3.10;;;;;;;-144.47;100.00;52570.09;5049295;28;20033;-65
2023/07/16 01:36:39;;;;;;;9.68;3.33;;;;;;;-144.47;100.00;52540.31;5050228;28;20041;-66
2023/07/16 01:39:05;;;;;;;6.70;2.85;;;;;;;-144.47;100.00;52554.22;5050581;28;20023;-67
2023/07/16 01:41:31;;;;;;;9.57;2.72;;;;;;;-144.47;100.00;52542.28;5049628;28;20025;-65
2023/07/16 01:43:56;;;;;;;12.40;2.80;;;;;;;-144.47;100.00;52582.00;5049064;28;20100;-63
2023/07/16 01:46:21;;;;;;;5.70;2.70;;;;;;;-144.47;100.00;52538.31;5050054;28;20040;-66
2023/07/16 01:48:47;;;;;;;6.50;2.55;;;;;;;-144.47;100.00;52574.06;5050289;28;20021;-65
2023/07/16 01:51:14;;;;;;;11.18;3.45;;;;;;;-144.47;100.00;52578.03;5050143;28;20100;-64
2023/07/16 01:53:42;;;;;;;8.27;2.38;;;;;;;-144.47;100.00;52566.13;5047551;28;20028;-67
2023/07/16 01:56:08;;;;;;;6.60;2.65;;;;;;;-144.47;100.00;52562.16;5050254;28;20035;-63
2023/07/16 01:58:33;;;;;;;8.02;3.60;;;;;;;-144.47;100.00;52560.16;5049257;28;20028;-65
2023/07/16 02:00:58;;;;;;;5.55;2.63;;;;;;;-144.47;100.00;52552.22;5043037;28;20048;-62
2023/07/16 02:03:24;;;;;;;6.25;3.33;;;;;;;-144.47;100.00;52558.19;5048759;28;20887;-67
2023/07/16 02:05:49;;;;;;;8.32;2.97;;;;;;;-144.47;100.00;52556.19;5049470;28;20071;-64
2023/07/16 02:08:16;;;;;;;17.33;3.17;;;;;;;-144.47;100.00;52582.00;5045218;28;20022;-65
2023/07/16 02:10:41;;;;;;;8.55;2.47;;;;;;;-144.47;100.00;52585.97;5049290;28;20062;-63
2023/07/16 02:13:06;;;;;;;8.40;2.60;;;;;;;-144.47;100.00;52560.16;5049032;28;20266;-65
2023/07/16 02:15:32;;;;;;;9.70;2.55;;;;;;;-144.47;100.00;52542.28;5049019;28;20107;-64
2023/07/16 02:17:57;;;;;;;6.57;2.90;;;;;;;-144.47;100.00;52576.06;5050259;28;20467;-59
2023/07/16 02:20:23;;;;;;;5.68;2.90;;;;;;;-144.47;100.00;52587.97;5049485;28;20512;-66
2023/07/16 02:22:48;;;;;;;8.57;3.10;;;;;;;-144.47;100.00;52578.03;5048980;28;20057;-63
2023/07/16 02:25:13;;;;;;;7.07;3.22;;;;;;;-144.47;100.00;52546.25;5048940;28;20033;-67
2023/07/16 02:27:39;;;;;;;7.20;3.42;;;;;;;-144.47;100.00;52538.31;5063229;22;20124;-72
2023/07/16 02:30:06;;;;;;;8.98;3.30;;;;;;;-144.47;100.00;52562.16;5048233;28;20120;-70
2023/07/16 02:32:32;;;;;;;8.13;3.83;;;;;;;-144.47;100.00;52552.22;5044676;28;20526;-71
2023/07/16 02:34:57;;;;;;;8.50;3.58;;;;;;;-144.47;100.00;52568.13;5048577;28;20109;-68
2023/07/16 02:37:22;;;;;;;9.45;3.60;;;;;;;-144.47;100.00;52601.88;5048731;28;20057;-71
2023/07/16 02:39:48;;;;;;;6.03;3.00;;;;;;;-144.47;100.00;52544.28;5050917;28;20032;-70
2023/07/16 02:42:13;;;;;;;8.15;3.10;;;;;;;-144.47;100.00;52550.25;5048474;28;20059;-71
2023/07/16 02:44:44;;;;;;;8.35;2.83;;;;;;;-144.47;100.00;52546.25;5047901;28;20112;-67
2023/07/16 02:47:10;;;;;;;8.73;2.80;;;;;;;-144.47;100.00;52570.09;5049333;28;20041;-66
2023/07/16 02:49:35;;;;;;;7.50;2.90;;;;;;;-144.47;100.00;52556.19;5049278;28;20047;-68
2023/07/16 02:52:01;;;;;;;9.63;3.25;;;;;;;-144.47;100.00;52568.13;5048712;28;20083;-70
2023/07/16 02:54:26;;;;;;;6.97;3.20;;;;;;;-144.47;100.00;52582.00;5048471;28;20029;-70
2023/07/16 02:56:51;;;;;;;6.35;2.70;;;;;;;-144.47;100.00;52550.25;5048620;28;20052;-70
2023/07/16 02:59:17;;;;;;;5.95;2.80;;;;;;;-144.47;100.00;52578.03;5047732;28;20033;-70
2023/07/16 03:01:42;;;;;;;11.20;3.40;;;;;;;-144.47;100.00;52580.03;5042941;28;20052;-71
2023/07/16 03:04:08;;;;;;;6.97;2.47;;;;;;;-144.47;100.00;52564.13;5048176;28;20386;-70
2023/07/16 03:06:33;;;;;;;8.90;3.08;;;;;;;-144.47;100.00;52570.09;5049014;28;20501;-70
2023/07/16 03:08:59;;;;;;;8.57;2.92;;;;;;;-144.47;100.00;52585.97;5045251;28;20025;-69
2023/07/16 03:11:24;;;;;;;8.10;2.70;;;;;;;-144.47;100.00;52576.06;5048893;28;20113;-70
2023/07/16 03:13:50;;;;;;;5.82;2.65;;;;;;;-144.47;100.00;52578.03;5047653;28;20021;-72
2023/07/16 03:16:15;;;;;;;7.55;2.53;;;;;;;-144.47;100.00;52570.09;5053303;28;20036;-72
2023/07/16 03:18:40;;;;;;;8.07;3.20;;;;;;;-144.47;100.00;52582.00;5052647;28;20033;-71
2023/07/16 03:21:06;;;;;;;7.47;3.15;;;;;;;-144.47;100.00;52585.97;5051771;28;20021;-71
2023/07/16 03:23:31;;;;;;;7.28;2.83;;;;;;;-144.47;100.00;52570.09;5051706;28;20021;-71
2023/07/16 03:25:56;;;;;;;10.75;3.08;;;;;;;-144.47;100.00;52591.94;5053665;28;20025;-69
2023/07/16 03:28:22;;;;;;;6.35;2.47;;;;;;;-144.47;100.00;52552.22;5051580;28;20025;-71
2023/07/16 03:30:49;;;;;;;6.13;3.15;;;;;;;-144.47;100.00;52584.00;5047691;28;20049;-70
2023/07/16 03:33:15;;;;;;;5.50;2.58;;;;;;;-144.47;100.00;52570.09;5051942;28;20521;-71
2023/07/16 03:35:45;;;;;;;4.75;2.28;;;;;;;-144.47;100.00;52587.97;5051640;28;20060;-70
2023/07/16 03:38:14;;;;;;;4.70;2.50;;;;;;;-144.47;100.00;52580.03;5052217;28;20048;-71
2023/07/16 03:40:39;;;;;;;5.63;2.35;;;;;;;-144.47;100.00;52546.25;5052773;28;20036;-67
2023/07/16 03:43:05;;;;;;;4.93;2.28;;;;;;;-144.47;100.00;52558.19;5051565;28;20051;-68
2023/07/16 03:45:31;;;;;;;6.75;2.85;;;;;;;-144.47;100.00;52578.03;5051866;28;20060;-72
2023/07/16 03:47:56;;;;;;;10.23;2.80;;;;;;;-144.47;100.00;52554.22;5051287;28;20104;-71
2023/07/16 03:50:21;;;;;;;7.13;2.42;;;;;;;-144.47;100.00;52556.19;5051312;28;20569;-71
2023/07/16 03:52:47;;;;;;;4.93;2.38;;;;;;;-144.47;100.00;52582.00;5052128;28;20479;-73
2023/07/16 03:55:12;;;;;;;7.82;2.65;;;;;;;-144.47;100.00;52582.00;5052513;28;20025;-70
2023/07/16 03:57:38;;;;;;;8.20;2.35;;;;;;;-144.47;100.00;52570.09;5049740;28;20029;-69
2023/07/16 04:00:07;;;;;;;6.88;2.70;;;;;;;-144.47;100.00;52578.03;5044342;28;20029;-71
2023/07/16 04:02:33;;;;;;;5.68;2.28;;;;;;;-144.47;100.00;52572.09;5047957;28;20032;-72
2023/07/16 04:04:58;;;;;;;6.82;2.40;;;;;;;-144.47;100.00;52560.16;5045045;28;20061;-67
2023/07/16 04:07:24;;;;;;;8.63;2.75;;;;;;;-144.47;100.00;52574.06;5052072;28;20052;-70
2023/07/16 04:09:50;;;;;;;4.85;2.40;;;;;;;-144.47;100.00;52562.16;5052078;28;20013;-72
2023/07/16 04:12:15;;;;;;;8.90;2.80;;;;;;;-144.47;100.00;52582.00;5052264;28;20079;-71
2023/07/16 04:14:40;;;;;;;9.15;2.65;;;;;;;-144.47;100.00;52576.06;5050752;28;20127;-69
2023/07/16 04:17:06;;;;;;;5.45;2.95;;;;;;;-144.47;100.00;52603.84;5051578;28;20058;-72
2023/07/16 04:19:31;;;;;;;6.55;3.00;;;;;;;-144.47;100.00;52578.03;5051633;28;20135;-67
2023/07/16 04:21:57;;;;;;;8.55;3.03;;;;;;;-144.47;100.00;52589.97;5051524;28;20035;-68
2023/07/16 04:24:23;;;;;;;8.27;2.85;;;;;;;-144.47;100.00;52574.06;5051556;28;20025;-71
2023/07/16 04:26:49;;;;;;;7.68;3.05;;;;;;;-144.47;100.00;52554.22;5051247;28;20379;-70
2023/07/16 04:29:14;;;;;;;7.10;2.72;;;;;;;-144.47;100.00;52572.09;5051318;28;20063;-69
2023/07/16 04:31:39;;;;;;;8.25;3.05;;;;;;;-144.47;100.00;52593.94;5045844;28;20021;-71
2023/07/16 04:34:05;;;;;;;9.80;3.08;;;;;;;-144.47;100.00;52578.03;5039430;28;20494;-70
2023/07/16 04:36:30;;;;;;;8.07;2.42;;;;;;;-144.47;100.00;52584.00;5047058;28;20032;-70
2023/07/16 04:38:55;;;;;;;7.80;2.88;;;;;;;-144.47;100.00;52587.97;5049662;28;20057;-70
2023/07/16 04:41:22;;;;;;;5.20;2.58;;;;;;;-144.47;100.00;52556.19;5049770;28;20033;-69
2023/07/16 04:43:47;;;;;;;5.10;2.67;;;;;;;-144.47;100.00;52582.00;5049243;28;20029;-69
2023/07/16 04:46:13;;;;;;;6.63;2.30;;;;;;;-144.47;100.00;52597.91;5051170;28;20049;-67
2023/07/16 04:48:38;;;;;;;4.85;2.20;;;;;;;-144.47;100.00;52580.03;5050760;28;20074;-69
2023/07/16 04:51:03;;;;;;;10.05;2.30;;;;;;;-144.47;100.00;52585.97;5044349;28;20052;-69
2023/07/16 04:53:29;;;;;;;9.15;2.42;;;;;;;-144.47;100.00;52562.16;5058792;28;20054;-69
2023/07/16 04:55:54;;;;;;;9.18;2.45;;;;;;;-144.47;100.00;52580.03;5059121;28;20440;-69
2023/07/16 04:58:19;;;;;;;5.03;2.38;;;;;;;-144.47;100.00;52584.00;5061443;28;20466;-72
2023/07/16 05:00:45;;;;;;;9.32;2.15;;;;;;;-144.47;100.00;52585.97;5058382;28;20542;-69
2023/07/16 05:03:11;;;;;;;8.05;3.28;;;;;;;-144.47;100.00;52582.00;5056750;28;20058;-71
2023/07/16 05:05:36;;;;;;;5.68;2.22;;;;;;;-144.47;100.00;52566.13;5046638;28;20029;-69
2023/07/16 05:08:01;;;;;;;4.50;2.20;;;;;;;-144.47;100.00;52582.00;5047564;28;20487;-72
2023/07/16 05:10:28;;;;;;;13.93;2.40;;;;;;;-144.47;99.47;52601.88;5044635;28;20028;-70
2023/07/16 05:12:53;;;;;;;6.68;2.55;;;;;;;-144.47;99.08;52591.94;5047288;28;20139;-71
2023/07/16 05:15:18;;;;;;;8.88;2.38;;;;;;;-144.47;99.00;52587.97;5041948;28;20123;-73
2023/07/16 05:17:44;;;;;;;4.45;2.40;;;;;;;-144.47;98.46;52605.84;5043512;28;20028;-71
2023/07/16 05:20:09;;;;;;;3.92;2.20;;;;;;;-144.47;97.80;52597.91;5042623;28;20033;-73
2023/07/16 05:22:35;;;;;;;7.40;2.10;;;;;;;-144.47;97.79;52584.00;5042578;28;20029;-71
2023/07/16 05:25:01;;;;;;;6.55;2.38;;;;;;;-144.47;94.38;52599.88;5043119;28;20074;-70
2023/07/16 05:27:27;;;;;;;6.03;2.20;;;;;;;-144.47;94.95;52599.88;5042742;28;20021;-72
2023/07/16 05:29:53;;;;;;;14.77;2.20;;;;;;;-144.47;94.17;52568.13;5042255;28;20524;-70
2023/07/16 05:32:18;;;;;;;8.50;1.88;;;;;;;-144.47;93.01;52605.84;5042697;28;20817;-69
2023/07/16 05:34:43;;;;;;;4.40;1.70;;;;;;;-144.47;92.14;52585.97;5042274;28;20036;-71
2023/07/16 05:37:09;;;;;;;3.22;1.70;;;;;;;-144.47;90.38;52591.94;5041913;28;20514;-70
2023/07/16 05:39:34;;;;;;;7.75;1.88;;;;;;;-144.47;90.97;52621.72;5042016;28;20100;-70
2023/07/16 05:42:02;;;;;;;6.25;1.65;;;;;;;-144.47;90.05;52601.88;5042903;28;20571;-71
2023/07/16 05:44:27;;;;;;;5.28;1.90;;;;;;;-144.47;90.57;52587.97;5040773;28;20494;-74
2023/07/16 05:46:53;;;;;;;5.28;2.00;;;;;;;-144.47;90.97;52615.78;5043793;28;20021;-73
2023/07/16 05:49:18;;;;;;;4.57;1.80;;;;;;;-144.47;91.63;52591.94;5048312;28;20029;-73
2023/07/16 05:51:43;;;;;;;5.18;1.77;;;;;;;-144.47;91.82;52615.78;5049333;28;20379;-73
2023/07/16 05:54:09;;;;;;;5.60;1.73;;;;;;;-144.47;92.66;52591.94;5048493;28;20418;-71
2023/07/16 05:56:34;;;;;;;2.35;1.30;;;;;;;-144.47;91.15;52605.84;5048835;28;20098;-70
2023/07/16 05:58:59;;;;;;;2.25;1.40;;;;;;;-144.47;91.48;52613.78;5047958;28;20109;-72
2023/07/16 06:01:25;;;;;;;4.45;1.73;;;;;;;-144.47;90.81;52585.97;5037758;28;20100;-69
2023/07/16 06:03:50;;;;;;;4.97;1.60;;;;;;;-144.47;90.97;52593.94;5042642;28;20017;-67
2023/07/16 06:06:16;;;;;;;3.78;1.77;;;;;;;-144.47;88.49;52621.72;5050565;28;20036;-70
2023/07/16 06:08:41;;;;;;;3.38;1.70;;;;;;;-144.47;87.52;52597.91;5043819;28;20032;-69
2023/07/16 06:11:06;;;;;;;2.70;1.58;;;;;;;-144.47;86.52;52603.84;5049993;28;20081;-71
2023/07/16 06:13:32;;;;;;;5.80;1.52;;;;;;;-144.47;87.43;52597.91;5046626;28;20655;-71
2023/07/16 06:15:57;;;;;;;6.47;1.80;;;;;;;-144.47;86.40;52613.78;5047392;28;20029;-71
2023/07/16 06:18:23;;;;;;;5.57;1.73;;;;;;;-144.47;83.66;52609.81;5043263;28;20029;-70
2023/07/16 06:20:48;;;;;;;3.03;1.50;;;;;;;-144.47;81.65;52613.78;5038055;28;20059;-70
2023/07/16 06:23:16;;;;;;;4.65;1.85;;;;;;;-144.47;82.17;52574.06;5049267;28;20040;-67
2023/07/16 06:25:44;;;;;;;5.00;1.73;;;;;;;-144.47;82.03;52597.91;5048872;28;20561;-72
2023/07/16 06:28:10;;;;;;;7.45;1.88;;;;;;;-144.47;81.40;52593.94;5044328;28;20237;-71
2023/07/16 06:30:36;;;;;;;6.65;1.90;;;;;;;-144.47;81.60;52595.91;5049454;28;20031;-69
2023/07/16 06:33:01;;;;;;;3.15;1.60;;;;;;;-144.47;79.77;52576.06;5049888;28;20071;-70
2023/07/16 06:35:27;;;;;;;6.07;1.77;;;;;;;-144.47;79.66;52578.03;5048636;28;20511;-70
2023/07/16 06:37:52;;;;;;;11.00;1.80;;;;;;;-144.47;76.51;52593.94;5042999;28;20055;-73
2023/07/16 06:40:18;;;;;;;9.27;1.58;;;;;;;-144.47;76.23;52609.81;5049723;28;20052;-69
2023/07/16 06:42:43;;;;;;;5.22;1.55;;;;;;;-144.47;74.42;52570.09;5048415;28;20044;-69
2023/07/16 06:45:09;;;;;;;4.35;1.77;;;;;;;-144.47;74.53;52609.81;5042962;28;20033;-71
2023/07/16 06:47:34;;;;;;;3.20;1.30;;;;;;;-144.47;74.22;52599.88;5050608;28;20079;-72
2023/07/16 06:50:00;;;;;;;5.28;1.40;;;;;;;-144.47;72.12;52582.00;5048213;28;20686;-70
2023/07/16 06:52:27;;;;;;;3.35;1.48;;;;;;;-144.47;71.62;52595.91;5040965;28;20021;-70
2023/07/16 06:54:53;;;;;;;5.78;1.58;;;;;;;-144.47;71.98;52605.84;5047711;28;20025;-70
2023/07/16 06:57:19;;;;;;;3.55;1.70;;;;;;;-144.47;71.72;52593.94;5048188;28;20398;-70
2023/07/16 06:59:45;;;;;;;4.60;1.50;;;;;;;-144.47;72.14;52580.03;5046383;28;20206;-71
2023/07/16 07:02:12;;;;;;;4.65;1.70;;;;;;;-144.47;72.09;52597.91;5046559;28;20542;-71
2023/07/16 07:04:37;;;;;;;8.05;1.65;;;;;;;-144.47;71.76;52587.97;5046209;28;20036;-71
2023/07/16 07:07:03;;;;;;;4.60;1.65;;;;;;;-144.47;70.90;52589.97;5047245;28;20020;-69
2023/07/16 07:09:28;;;;;;;5.03;1.52;;;;;;;-144.47;69.91;52601.88;5045756;28;20509;-70
2023/07/16 07:11:54;;;;;;;5.40;1.42;;;;;;;-144.47;67.92;52615.78;5045398;28;20090;-71
2023/07/16 07:14:19;;;;;;;7.75;1.70;;;;;;;-144.47;68.15;52584.00;5047042;28;20037;-66
2023/07/16 07:16:44;;;;;;;4.60;1.80;;;;;;;-144.47;67.09;52603.84;5045335;28;20129;-70
2023/07/16 07:19:10;;;;;;;6.60;2.13;;;;;;;-144.47;67.67;52611.81;5048314;28;20487;-69
2023/07/16 07:21:35;;;;;;;3.97;1.60;;;;;;;-144.47;67.88;52591.94;5048714;28;20548;-69
2023/07/16 07:24:00;;;;;;;5.40;1.50;;;;;;;-144.47;66.00;52609.81;5046218;28;20025;-69
2023/07/16 07:26:26;;;;;;;5.80;1.77;;;;;;;-144.47;66.54;52587.97;5047227;28;20084;-69
2023/07/16 07:28:51;;;;;;;6.70;1.58;;;;;;;-144.47;66.91;52595.91;5046310;28;20025;-69
2023/07/16 07:31:17;;;;;;;5.13;1.70;;;;;;;-144.47;65.29;52637.63;5036860;28;20029;-70
2023/07/16 07:33:42;;;;;;;5.25;1.50;;;;;;;-144.47;64.98;52585.97;5042837;28;20091;-68
2023/07/16 07:36:08;;;;;;;3.92;1.50;;;;;;;-144.47;64.47;52580.03;5048514;28;20021;-69
2023/07/16 07:38:33;;;;;;;6.72;1.67;;;;;;;-144.47;63.86;52595.91;5047142;28;20033;-69
2023/07/16 07:40:58;;;;;;;8.48;1.70;;;;;;;-144.47;63.56;52611.81;5044313;28;20025;-67
2023/07/16 07:43:24;;;;;;;5.97;1.65;;;;;;;-144.47;63.77;52593.94;5047632;28;20029;-69
2023/07/16 07:45:49;;;;;;;4.05;1.35;;;;;;;-144.47;64.47;52633.66;5048012;28;20509;-70
2023/07/16 07:48:14;;;;;;;5.55;2.42;;;;;;;-144.47;64.02;52623.72;5038773;28;20021;-69
2023/07/16 07:50:39;;;;;;;4.28;1.63;;;;;;;-144.47;61.76;52607.84;5047354;28;20029;-70
2023/07/16 07:53:06;;;;;;;2.97;1.38;;;;;;;-144.47;61.26;52593.94;5046655;28;20056;-70
2023/07/16 07:55:31;;;;;;;10.88;1.80;;;;;;;-144.47;60.96;52617.75;5047995;28;20028;-66
2023/07/16 07:57:57;;;;;;;3.00;1.40;;;;;;;-144.47;59.03;52621.72;5042214;28;20025;-69
2023/07/16 08:00:22;;;;;;;5.22;1.40;;;;;;;-144.47;59.24;52611.81;5047001;28;20109;-69
2023/07/16 08:02:47;;;;;;;7.97;1.50;;;;;;;-144.47;58.26;52584.00;5051045;28;20025;-67
2023/07/16 08:05:13;;;;;;;5.45;1.42;;;;;;;-144.47;59.11;52617.75;5049773;28;20037;-68
2023/07/16 08:07:38;;;;;;;5.82;1.63;;;;;;;-144.47;58.33;52627.69;5051493;28;20020;-69
2023/07/16 08:10:04;;;;;;;9.35;1.40;;;;;;;-144.47;57.86;52605.84;5051473;28;20025;-66
2023/07/16 08:12:30;;;;;;;6.07;2.13;;;;;;;-144.47;58.23;52578.03;5050757;28;20099;-67
2023/07/16 08:14:56;;;;;;;3.25;1.50;;;;;;;-144.47;56.39;52593.94;5047365;28;20083;-67
2023/07/16 08:17:22;;;;;;;5.15;1.48;;;;;;;-144.47;57.08;52595.91;5042626;28;20068;-67
2023/07/16 08:19:47;;;;;;;4.88;1.50;;;;;;;-144.47;54.63;52607.84;5051594;28;20446;-69
2023/07/16 08:22:12;;;;;;;7.07;1.52;;;;;;;-144.47;54.36;52613.78;5050831;28;20036;-66
2023/07/16 08:24:38;;;;;;;5.07;1.80;;;;;;;-144.47;53.64;52619.75;5050231;28;20032;-67
2023/07/16 08:27:04;;;;;;;8.05;1.60;;;;;;;-144.47;52.71;52605.84;5064262;22;20110;-65
2023/07/16 08:29:29;;;;;;;7.25;1.52;;;;;;;-144.47;51.21;52649.53;5051031;28;20530;-65
2023/07/16 08:31:55;;;;;;;6.32;1.67;;;;;;;-144.47;52.17;52645.56;5047193;28;20083;-64
2023/07/16 08:34:20;;;;;;;4.55;1.48;;;;;;;-144.47;51.55;52621.72;5050871;28;20401;-63
2023/07/16 08:36:45;;;;;;;3.65;1.40;;;;;;;-144.47;51.52;52621.72;5051736;28;20032;-62
2023/07/16 08:39:11;;;;;;;5.15;1.65;;;;;;;-144.47;52.10;52641.59;5051762;28;20070;-65
2023/07/16 08:41:38;;;;;;;4.32;1.38;;;;;;;-144.47;52.35;52641.59;5049550;28;20032;-61
2023/07/16 08:44:03;;;;;;;9.35;1.60;;;;;;;-144.47;50.24;52625.72;5044873;28;20033;-64
2023/07/16 08:46:29;;;;;;;8.60;1.80;;;;;;;-144.47;49.90;52621.72;5046793;28;20029;-64
2023/07/16 08:48:56;;;;;;;9.35;1.73;;;;;;;-144.47;50.31;52609.81;5050637;28;20501;-61
2023/07/16 08:51:23;;;;;;;3.85;1.70;;;;;;;-144.47;50.48;52629.69;5039330;28;20055;-64
2023/07/16 08:53:48;;;;;;;4.32;1.50;;;;;;;-144.47;50.20;52623.72;5049698;28;20025;-64
2023/07/16 08:56:14;;;;;;;4.53;1.30;;;;;;;-144.47;48.29;52637.63;5050441;28;20036;-61
2023/07/16 08:58:43;;;;;;;4.88;1.40;;;;;;;-144.47;47.46;52617.75;5050639;28;20115;-65
2023/07/16 09:01:10;;;;;;;7.10;1.77;;;;;;;-144.47;45.01;52619.75;5052104;28;20032;-65
2023/07/16 09:03:35;;;;;;;11.23;1.73;;;;;;;-144.47;45.00;52621.72;5050091;28;20048;-59
2023/07/16 09:06:02;;;;;;;4.15;1.30;;;;;;;-144.47;42.59;52617.75;5052081;28;20057;-63
2023/07/16 09:08:28;;;;;;;5.95;1.25;;;;;;;-144.47;41.85;52657.47;5043324;28;20617;-62
2023/07/16 09:10:57;;;;;;;7.13;1.38;;;;;;;-144.47;42.13;52643.56;5051550;28;20028;-64
2023/07/16 09:13:27;;;;;;;5.90;1.50;;;;;;;-144.47;43.01;52611.81;5049329;28;20103;-64
2023/07/16 09:15:55;;;;;;;9.73;1.50;;;;;;;-144.47;43.04;52623.72;5049576;28;20107;-64
2023/07/16 09:18:25;;;;;;;7.50;1.33;;;;;;;-144.47;43.56;52637.63;5051535;28;20020;-64
2023/07/16 09:20:58;;;;;;;4.35;1.38;;;;;;;-144.47;43.83;52639.59;5038498;28;20278;-65
2023/07/16 09:23:25;;;;;;;5.97;1.40;;;;;;;-144.47;43.61;52609.81;5050406;28;20025;-63
2023/07/16 09:25:51;;;;;;;5.70;1.60;;;;;;;-144.47;43.93;52623.72;5051070;28;20130;-64
2023/07/16 09:28:18;;;;;;;8.23;1.75;;;;;;;-144.47;43.76;52643.56;5050839;28;20518;-64
2023/07/16 09:30:44;;;;;;;6.23;1.73;;;;;;;-144.47;42.40;52651.53;5045091;28;20034;-65
2023/07/16 09:33:25;;;;;;;5.95;1.42;;;;;;;-144.47;42.82;52637.63;5046519;28;20274;-64
2023/07/16 09:35:51;;;;;;;5.65;1.60;;;;;;;-144.47;42.70;52621.72;5051121;28;20028;-64
2023/07/16 09:38:18;;;;;;;5.68;1.50;;;;;;;-144.47;40.44;52619.75;5050349;28;20474;-63
2023/07/16 09:40:44;;;;;;;3.67;1.17;;;;;;;-144.47;38.56;52615.78;5051670;28;20033;-62
2023/07/16 09:43:11;;;;;;;6.60;1.35;;;;;;;-144.47;39.49;52629.69;5050473;28;20445;-64
2023/07/16 09:45:37;;;;;;;5.75;1.70;;;;;;;-144.47;40.14;52653.50;5049735;28;20032;-63
2023/07/16 09:48:05;;;;;;;5.13;1.65;;;;;;;-144.47;39.39;52621.72;5049323;28;20102;-63
2023/07/16 09:50:35;;;;;;;4.80;1.48;;;;;;;-144.47;38.96;52615.78;5049986;28;20376;-63
2023/07/16 09:53:03;;;;;;;7.13;1.48;;;;;;;-144.47;39.96;52647.56;5050530;28;20040;-62
2023/07/16 09:55:31;;;;;;;5.63;1.42;;;;;;;-144.47;39.54;52637.63;5049986;28;20036;-63
2023/07/16 09:57:59;;;;;;;4.95;1.35;;;;;;;-144.47;39.27;52621.72;5049916;28;20035;-64
2023/07/16 10:00:25;;;;;;;11.48;1.40;;;;;;;-144.47;39.51;52641.59;5050058;28;20029;-62
2023/07/16 10:02:54;;;;;;;8.48;1.77;;;;;;;-144.47;39.39;52647.56;5048930;28;20040;-64
2023/07/16 10:05:22;;;;;;;5.28;1.63;;;;;;;-144.47;39.72;52635.63;5049382;28;20057;-64
2023/07/16 10:07:52;;;;;;;2.63;1.20;;;;;;;-144.47;39.60;52633.66;5048778;28;20036;-64
2023/07/16 10:10:18;;;;;;;6.25;1.30;;;;;;;-144.47;39.56;52639.59;5048761;28;20628;-64
2023/07/16 10:12:56;;;;;;;5.05;1.50;;;;;;;-144.47;39.61;52619.75;5049868;28;20489;-64
2023/07/16 10:15:27;;;;;;;4.85;1.33;;;;;;;-144.47;39.89;52635.63;5049149;28;20107;-63
2023/07/16 10:17:53;;;;;;;4.85;1.48;;;;;;;-144.47;39.80;52641.59;5050225;28;20029;-64
2023/07/16 10:20:28;;;;;;;4.05;1.30;;;;;;;-144.47;39.66;52637.63;5049630;28;20032;-62
2023/07/16 10:22:54;;;;;;;5.88;1.70;;;;;;;-144.47;38.74;52657.47;5049785;28;20029;-64
2023/07/16 10:25:19;;;;;;;5.22;1.42;;;;;;;-144.47;38.44;52661.44;5048836;28;20029;-61
2023/07/16 10:27:49;;;;;;;7.88;2.22;;;;;;;-144.47;38.34;52653.50;5050329;28;20238;-63
2023/07/16 10:30:15;;;;;;;6.32;1.55;;;;;;;-144.47;38.50;52659.47;5049330;28;20044;-64
2023/07/16 10:32:41;;;;;;;6.03;1.42;;;;;;;-144.47;38.39;52647.56;5045344;28;20036;-66
2023/07/16 10:35:08;;;;;;;5.40;1.33;;;;;;;-144.47;38.95;52639.59;5049224;28;20028;-59
2023/07/16 10:37:34;;;;;;;7.03;1.60;;;;;;;-144.47;38.76;52645.56;5049525;28;20020;-64
2023/07/16 10:40:00;;;;;;;7.70;1.75;;;;;;;-144.47;38.69;52653.50;5050153;28;20047;-64
2023/07/16 10:42:27;;;;;;;4.70;1.58;;;;;;;-144.47;38.47;52635.63;5050343;28;20029;-63
2023/07/16 10:44:55;;;;;;;3.00;1.15;;;;;;;-144.47;38.44;52669.41;5047461;28;20114;-64
2023/07/16 10:47:23;;;;;;;11.57;1.95;;;;;;;-144.47;38.12;52655.50;5048763;28;20135;-64
2023/07/16 10:49:49;;;;;;;8.18;1.42;;;;;;;-144.47;38.08;52677.34;5049446;28;20040;-61
2023/07/16 10:52:15;;;;;;;6.82;1.60;;;;;;;-144.47;38.34;52677.34;5047629;28;20025;-65
2023/07/16 10:54:41;;;;;;;3.63;1.42;;;;;;;-144.47;38.07;52649.53;5049246;28;20028;-65
2023/07/16 10:57:06;;;;;;;4.80;1.50;;;;;;;-144.47;37.77;52677.34;5048580;28;20094;-64
2023/07/16 10:59:32;;;;;;;7.75;1.60;;;;;;;-144.47;37.97;52653.50;5048667;28;20475;-65
2023/07/16 11:01:58;;;;;;;8.02;1.40;;;;;;;-144.47;36.73;52669.41;5049493;28;20064;-60
2023/07/16 11:04:23;;;;;;;3.33;1.23;;;;;;;-144.47;37.00;52675.34;5048233;28;20154;-64
2023/07/16 11:06:52;;;;;;;5.25;1.30;;;;;;;-144.47;37.05;52693.22;5045831;28;20024;-63
2023/07/16 11:09:17;;;;;;;5.35;1.60;;;;;;;-144.47;37.05;52673.38;5044845;28;20580;-60
2023/07/16 11:11:43;;;;;;;3.33;1.45;;;;;;;-144.47;36.33;52679.31;5049169;28;20058;-64